This is the latest recevied weather packets stored in our database for station/object OK1ZDJ-13. If no packets are shown the sender has not sent any weather packets the latest 10 day(s).
| Time | Temp. | Humidity | Pressure | Rain* | Wind** | Luminosity | Snow |
|---|---|---|---|---|---|---|---|
| 1777621062 | 12.22° C | 50% | 1030.9 hPa | - | - | - | - |
| 1777620463 | 11.67° C | 49% | 1031 hPa | - | - | - | - |
| 1777619861 | 11.67° C | 49% | 1031 hPa | - | - | - | - |
| 1777619261 | 11.11° C | 51% | 1031 hPa | - | - | - | - |
| 1777618661 | 10.56° C | 50% | 1031 hPa | - | - | - | - |
| 1777618061 | 10.56° C | 50% | 1030.9 hPa | - | - | - | - |
| 1777617462 | 11.11° C | 48% | 1031 hPa | - | - | - | - |
| 1777616863 | 11.11° C | 48% | 1031 hPa | - | - | - | - |
| 1777616262 | 10.56° C | 49% | 1031 hPa | - | - | - | - |
| 1777615662 | 10° C | 52% | 1031 hPa | - | - | - | - |
| 1777615062 | 9.44° C | 54% | 1031 hPa | - | - | - | - |
| 1777614461 | 8.89° C | 57% | 1030.9 hPa | - | - | - | - |
| 1777613861 | 8.33° C | 58% | 1030.9 hPa | - | - | - | - |
| 1777613261 | 7.78° C | 61% | 1031 hPa | - | - | - | - |
| 1777612661 | 7.22° C | 64% | 1030.9 hPa | - | - | - | - |
| 1777612061 | 5.56° C | 69% | 1031 hPa | - | - | - | - |
| 1777611461 | 5° C | 75% | 1031 hPa | - | - | - | - |
| 1777610862 | 4.44° C | 76% | 1031 hPa | - | - | - | - |
| 1777610261 | 3.89° C | 77% | 1031 hPa | - | - | - | - |
| 1777609662 | 3.33° C | 78% | 1031 hPa | - | - | - | - |
| 1777609062 | 3.33° C | 78% | 1031.1 hPa | - | - | - | - |
| 1777608462 | 2.78° C | 77% | 1031.1 hPa | - | - | - | - |
| 1777607862 | 2.78° C | 77% | 1031 hPa | - | - | - | - |
| 1777607261 | 2.78° C | 77% | 1030.9 hPa | - | - | - | - |
| 1777606666 | 2.78° C | 74% | 1030.8 hPa | - | - | - | - |
* Rain since midnight (hover to see other rain measurements)
** Current wind speed in m/s (hover to see current wind gust speed)